createdAt,value
2019-03-27T00:00:52.420Z,23.53
2019-03-27T00:03:23.396Z,21.60
2019-03-27T00:05:53.889Z,22.13
2019-03-27T00:08:24.515Z,30.90
2019-03-27T00:10:55.107Z,40.60
2019-03-27T00:13:25.625Z,33.33
2019-03-27T00:15:56.665Z,41.30
2019-03-27T00:18:27.187Z,41.53
2019-03-27T00:20:57.742Z,37.57
2019-03-27T00:23:28.267Z,41.80
2019-03-27T00:25:58.892Z,29.90
2019-03-27T00:28:29.491Z,44.47
2019-03-27T00:31:00.032Z,35.63
2019-03-27T00:33:30.597Z,22.63
2019-03-27T00:36:01.087Z,22.33
2019-03-27T00:38:31.652Z,26.67
2019-03-27T00:41:02.225Z,24.83
2019-03-27T00:43:32.751Z,29.63
2019-03-27T00:46:03.305Z,28.93
2019-03-27T00:48:33.856Z,29.20
2019-03-27T00:51:04.336Z,28.03
2019-03-27T00:53:34.776Z,32.13
2019-03-27T00:56:05.529Z,26.90
2019-03-27T00:58:36.110Z,31.50
2019-03-27T01:01:08.885Z,27.47
2019-03-27T01:03:39.339Z,33.90
2019-03-27T01:06:09.970Z,29.77
2019-03-27T01:08:40.432Z,35.83
2019-03-27T01:11:11.008Z,34.47
2019-03-27T01:13:41.639Z,37.73
2019-03-27T01:16:12.125Z,35.07
2019-03-27T01:18:42.675Z,34.00
2019-03-27T01:21:13.220Z,35.47
2019-03-27T01:23:43.741Z,34.90
2019-03-27T01:26:14.284Z,29.63
2019-03-27T01:28:44.813Z,35.70
2019-03-27T01:31:15.387Z,28.37
2019-03-27T01:33:47.451Z,24.40
2019-03-27T01:36:18.104Z,25.80
2019-03-27T01:38:48.627Z,29.90
2019-03-27T01:41:19.217Z,27.13
2019-03-27T01:43:49.765Z,28.87
2019-03-27T01:46:20.460Z,27.03
2019-03-27T01:48:51.046Z,23.00
2019-03-27T01:51:21.665Z,27.53
2019-03-27T01:53:52.338Z,28.63
2019-03-27T01:56:22.966Z,31.87
2019-03-27T01:58:53.503Z,27.37
2019-03-27T02:01:24.052Z,30.13
2019-03-27T02:03:54.568Z,25.47
2019-03-27T02:06:25.204Z,27.47
2019-03-27T02:08:55.816Z,22.90
2019-03-27T02:11:26.372Z,26.10
2019-03-27T02:13:56.970Z,22.33
2019-03-27T02:16:27.589Z,27.20
2019-03-27T02:18:58.067Z,28.97
2019-03-27T02:21:28.605Z,32.77
2019-03-27T02:23:59.090Z,27.07
2019-03-27T02:26:29.842Z,27.37
2019-03-27T02:29:00.473Z,31.87
2019-03-27T02:31:31.114Z,36.20
2019-03-27T02:34:01.748Z,35.50
2019-03-27T02:36:32.362Z,47.80
2019-03-27T02:39:03.417Z,41.30
2019-03-27T02:41:35.043Z,35.57
2019-03-27T02:44:06.694Z,40.53
2019-03-27T02:46:37.191Z,29.37
2019-03-27T02:49:07.678Z,26.60
2019-03-27T02:51:38.440Z,31.43
2019-03-27T02:54:09.029Z,30.80
2019-03-27T02:56:39.587Z,34.33
2019-03-27T02:59:10.263Z,35.33
2019-03-27T03:01:40.904Z,34.40
2019-03-27T03:04:11.363Z,38.07
2019-03-27T03:06:42.000Z,33.67
2019-03-27T03:09:13.115Z,29.40
2019-03-27T03:11:43.675Z,28.03
2019-03-27T03:14:14.447Z,32.20
2019-03-27T03:16:45.186Z,28.07
2019-03-27T03:19:15.698Z,30.47
2019-03-27T03:21:46.212Z,30.67
2019-03-27T03:24:16.684Z,33.47
2019-03-27T03:26:51.006Z,39.10
2019-03-27T03:29:19.479Z,28.73
2019-03-27T03:31:50.065Z,38.87
2019-03-27T03:34:20.533Z,26.63
2019-03-27T03:36:51.330Z,28.47
2019-03-27T03:39:21.870Z,26.30
2019-03-27T03:41:52.511Z,29.03
2019-03-27T03:44:23.076Z,29.43
2019-03-27T03:47:00.113Z,26.03
2019-03-27T03:49:25.875Z,24.00
2019-03-27T03:51:56.602Z,23.87
2019-03-27T03:54:27.128Z,30.50
2019-03-27T03:56:57.683Z,31.07
2019-03-27T03:59:29.204Z,28.87
2019-03-27T04:02:02.861Z,40.50
2019-03-27T04:04:33.307Z,78.97
2019-03-27T04:07:03.871Z,60.43
2019-03-27T04:09:34.327Z,81.37
2019-03-27T04:12:04.844Z,100.37
2019-03-27T04:14:35.352Z,96.70
2019-03-27T04:17:17.167Z,89.67
2019-03-27T04:19:39.264Z,77.73
2019-03-27T04:22:09.854Z,56.37
2019-03-27T04:24:40.392Z,53.70
2019-03-27T04:27:10.844Z,53.47
2019-03-27T04:29:41.367Z,62.40
2019-03-27T04:32:11.849Z,56.50
2019-03-27T04:34:46.843Z,50.97
2019-03-27T04:37:15.637Z,55.07
2019-03-27T04:39:46.244Z,52.10
2019-03-27T04:42:16.732Z,41.90
2019-03-27T04:44:47.281Z,40.90
2019-03-27T04:47:31.447Z,40.77
2019-03-27T04:49:51.119Z,43.47
2019-03-27T04:52:22.780Z,45.47
2019-03-27T04:54:53.227Z,43.33
2019-03-27T04:57:23.715Z,52.97
2019-03-27T04:59:54.229Z,55.87
2019-03-27T05:02:24.846Z,59.83
2019-03-27T05:04:55.870Z,55.53
2019-03-27T05:07:26.430Z,54.27
2019-03-27T05:09:56.959Z,64.40
2019-03-27T05:12:28.451Z,79.57
2019-03-27T05:15:00.072Z,134.07
2019-03-27T05:17:30.704Z,196.73
2019-03-27T05:20:01.255Z,129.17
2019-03-27T05:22:32.882Z,59.67
2019-03-27T05:25:03.779Z,82.40
2019-03-27T05:27:36.488Z,86.57
2019-03-27T05:30:07.354Z,122.10
2019-03-27T05:32:38.198Z,112.13
2019-03-27T05:35:09.051Z,78.23
2019-03-27T05:37:39.665Z,63.30
2019-03-27T05:40:10.371Z,72.83
2019-03-27T05:42:41.024Z,114.53
2019-03-27T05:45:11.938Z,120.53
2019-03-27T05:47:42.747Z,67.93
2019-03-27T05:50:13.326Z,63.00
2019-03-27T05:52:44.062Z,55.50
2019-03-27T05:55:15.316Z,40.10
2019-03-27T05:57:47.842Z,39.40
2019-03-27T06:00:19.022Z,44.17
2019-03-27T06:02:49.750Z,41.03
2019-03-27T06:05:20.380Z,41.73
2019-03-27T06:07:51.124Z,35.77
2019-03-27T06:10:22.254Z,32.37
2019-03-27T06:12:53.123Z,32.07
2019-03-27T06:15:23.766Z,27.30
2019-03-27T06:17:55.019Z,29.47
2019-03-27T06:20:25.653Z,34.60
2019-03-27T06:22:56.221Z,38.17
2019-03-27T06:25:28.805Z,29.53
2019-03-27T06:28:00.076Z,38.00
2019-03-27T06:30:30.814Z,26.37
2019-03-27T06:33:01.288Z,27.97
2019-03-27T06:35:31.878Z,26.07
2019-03-27T06:38:02.457Z,24.40
2019-03-27T06:40:33.004Z,26.43
2019-03-27T06:43:03.561Z,28.03
2019-03-27T06:45:34.171Z,29.43
2019-03-27T06:48:04.714Z,29.73
2019-03-27T06:50:35.156Z,27.63
2019-03-27T06:53:05.723Z,28.80
2019-03-27T06:55:36.235Z,28.67
2019-03-27T06:58:06.847Z,27.23
2019-03-27T07:00:38.048Z,30.03
2019-03-27T07:03:08.650Z,37.60
2019-03-27T07:05:39.108Z,28.07
2019-03-27T07:08:09.660Z,28.43
2019-03-27T07:10:40.162Z,17.77
2019-03-27T07:13:10.711Z,25.97
2019-03-27T07:15:41.265Z,29.20
2019-03-27T07:18:11.746Z,11.53
2019-03-27T07:20:42.352Z,17.87
2019-03-27T07:23:12.900Z,22.07
2019-03-27T07:25:43.454Z,28.27
2019-03-27T07:28:14.008Z,18.60
2019-03-27T07:30:44.506Z,17.87
2019-03-27T07:33:14.966Z,19.23
2019-03-27T07:35:45.434Z,18.90
2019-03-27T07:38:16.034Z,12.87
2019-03-27T07:40:46.636Z,21.07
2019-03-27T07:43:17.225Z,20.37
2019-03-27T07:45:47.807Z,20.33
2019-03-27T07:48:18.340Z,17.90
2019-03-27T07:50:48.849Z,15.73
2019-03-27T07:53:22.294Z,15.87
2019-03-27T07:55:51.510Z,14.07
2019-03-27T07:58:22.060Z,12.93
2019-03-27T08:00:52.536Z,12.90
2019-03-27T08:03:23.060Z,14.55
2019-03-27T08:05:53.536Z,15.60
2019-03-27T08:08:24.165Z,14.25
2019-03-27T08:10:54.588Z,12.20
2019-03-27T08:13:25.069Z,11.45
2019-03-27T08:15:55.517Z,12.80
2019-03-27T08:18:25.974Z,14.40
2019-03-27T08:20:56.504Z,12.58
2019-03-27T08:23:27.064Z,11.63
2019-03-27T08:25:57.731Z,8.85
2019-03-27T08:28:28.190Z,11.03
2019-03-27T08:30:58.762Z,12.65
2019-03-27T08:33:29.303Z,11.10
2019-03-27T08:35:59.721Z,9.83
2019-03-27T08:38:31.294Z,1.95
2019-03-27T08:41:01.817Z,7.72
2019-03-27T08:43:32.326Z,13.68
2019-03-27T08:46:02.835Z,17.45
2019-03-27T08:48:33.300Z,8.03
2019-03-27T08:51:03.751Z,9.65
2019-03-27T08:53:34.308Z,7.58
2019-03-27T08:56:04.803Z,10.53
2019-03-27T08:58:35.326Z,8.73
2019-03-27T09:01:05.812Z,6.90
2019-03-27T09:03:36.342Z,7.15
2019-03-27T09:06:06.858Z,7.90
2019-03-27T09:08:37.380Z,8.05
2019-03-27T09:11:07.822Z,6.22
2019-03-27T09:13:38.351Z,7.05
2019-03-27T09:16:08.882Z,5.10
2019-03-27T09:18:39.422Z,8.35
2019-03-27T09:21:09.866Z,6.05
2019-03-27T09:23:40.385Z,8.75
2019-03-27T09:26:10.987Z,4.17
2019-03-27T09:28:41.582Z,5.22
2019-03-27T09:31:12.213Z,5.60
2019-03-27T09:33:42.750Z,3.58
2019-03-27T09:36:13.191Z,3.90
2019-03-27T09:38:43.720Z,5.72
2019-03-27T09:41:14.229Z,9.45
2019-03-27T09:43:45.842Z,4.53
2019-03-27T09:46:16.439Z,5.87
2019-03-27T09:48:46.967Z,5.03
2019-03-27T09:51:17.382Z,4.72
2019-03-27T09:53:48.050Z,5.53
2019-03-27T09:56:19.798Z,6.05
2019-03-27T09:58:50.308Z,3.58
2019-03-27T10:01:20.813Z,3.85
2019-03-27T10:03:52.329Z,4.65
2019-03-27T10:06:22.788Z,4.75
2019-03-27T10:08:53.361Z,5.55
2019-03-27T10:11:24.025Z,4.03
2019-03-27T10:13:54.551Z,6.00
2019-03-27T10:16:25.090Z,5.58
2019-03-27T10:18:55.663Z,7.03
2019-03-27T10:21:26.161Z,5.08
2019-03-27T10:24:06.348Z,6.20
2019-03-27T10:27:06.725Z,4.08
2019-03-27T10:29:41.925Z,2.45
2019-03-27T10:32:12.503Z,4.40
2019-03-27T10:34:43.159Z,3.30
2019-03-27T10:37:14.404Z,4.55
2019-03-27T10:39:46.128Z,5.90
2019-03-27T10:42:16.859Z,5.42
2019-03-27T10:44:47.350Z,6.40
2019-03-27T10:47:18.098Z,4.70
2019-03-27T10:49:48.646Z,5.22
2019-03-27T10:52:19.249Z,7.55
2019-03-27T10:54:49.796Z,3.70
2019-03-27T10:57:20.471Z,7.15
2019-03-27T10:59:51.121Z,4.70
2019-03-27T11:02:21.689Z,2.50
2019-03-27T11:04:52.262Z,5.35
2019-03-27T11:07:22.748Z,6.55
2019-03-27T11:09:53.369Z,5.78
2019-03-27T11:12:24.062Z,5.25
2019-03-27T11:14:54.591Z,5.17
2019-03-27T11:17:25.452Z,4.33
2019-03-27T11:19:55.944Z,4.75
2019-03-27T11:22:26.573Z,6.20
2019-03-27T11:24:57.567Z,7.72
2019-03-27T11:27:28.119Z,5.80
2019-03-27T11:29:58.681Z,18.92
2019-03-27T11:32:29.493Z,4.90
2019-03-27T11:34:59.976Z,4.40
2019-03-27T11:41:34.576Z,2.67
2019-03-27T11:47:53.634Z,7.55
2019-03-27T11:50:27.121Z,2.87
2019-03-27T11:52:57.517Z,7.67
2019-03-27T11:55:27.987Z,4.28
2019-03-27T11:57:58.444Z,5.75
2019-03-27T12:00:28.970Z,2.87
2019-03-27T12:02:59.615Z,7.87
2019-03-27T12:05:30.323Z,5.10
2019-03-27T12:08:00.906Z,3.65
2019-03-27T12:10:31.568Z,4.30
2019-03-27T12:13:02.154Z,4.58
2019-03-27T12:15:40.823Z,4.58
2019-03-27T12:18:16.420Z,8.85
2019-03-27T12:21:06.267Z,1.85
2019-03-27T12:24:00.922Z,3.70
2019-03-27T12:26:58.022Z,6.55
2019-03-27T12:29:55.591Z,6.15
2019-03-27T12:32:42.693Z,7.30
2019-03-27T12:35:33.439Z,7.53
2019-03-27T12:38:09.074Z,5.37
2019-03-27T12:40:41.474Z,5.83
2019-03-27T12:43:16.078Z,5.45
2019-03-27T12:45:48.448Z,5.62
2019-03-27T12:48:18.952Z,4.60
2019-03-27T12:50:49.484Z,6.83
2019-03-27T12:53:20.091Z,7.95
2019-03-27T12:56:19.696Z,6.83
2019-03-27T13:02:30.796Z,6.30
2019-03-27T13:05:02.866Z,3.52
2019-03-27T13:07:34.472Z,6.95
2019-03-27T13:10:23.877Z,7.50
2019-03-27T13:12:55.824Z,6.67
2019-03-27T13:15:26.820Z,7.08
2019-03-27T13:17:57.421Z,8.50
2019-03-27T13:20:27.963Z,14.70
2019-03-27T13:22:58.465Z,9.03
2019-03-27T13:25:29.003Z,8.23
2019-03-27T13:27:59.544Z,9.03
2019-03-27T13:30:29.981Z,11.50
2019-03-27T13:33:00.790Z,6.72
2019-03-27T13:35:31.345Z,4.35
2019-03-27T13:38:01.969Z,6.75
2019-03-27T13:40:32.474Z,4.67
2019-03-27T13:43:02.889Z,7.00
2019-03-27T13:45:33.414Z,7.87
2019-03-27T13:48:04.010Z,5.95
2019-03-27T13:50:34.530Z,11.43
2019-03-27T13:53:05.065Z,5.25
2019-03-27T13:55:35.718Z,3.42
2019-03-27T13:58:06.391Z,4.83
2019-03-27T14:00:36.909Z,5.00
2019-03-27T14:03:07.411Z,5.75
2019-03-27T14:05:38.081Z,6.00
2019-03-27T14:08:08.521Z,3.50
2019-03-27T14:10:39.058Z,4.92
2019-03-27T14:13:09.551Z,4.35
2019-03-27T14:15:40.217Z,8.85
2019-03-27T14:18:10.666Z,5.83
2019-03-27T14:20:41.359Z,5.72
2019-03-27T14:23:11.862Z,5.05
2019-03-27T14:25:42.368Z,9.55
2019-03-27T14:28:17.472Z,7.35
2019-03-27T14:30:55.564Z,7.67
2019-03-27T14:33:26.026Z,6.25
2019-03-27T14:35:56.544Z,10.20
2019-03-27T14:38:27.114Z,6.67
2019-03-27T14:40:57.646Z,12.78
2019-03-27T14:43:28.163Z,11.10
2019-03-27T14:46:15.604Z,7.92
2019-03-27T14:49:12.314Z,10.55
2019-03-27T14:52:08.151Z,8.15
2019-03-27T14:54:43.617Z,6.45
2019-03-27T14:57:16.336Z,12.43
2019-03-27T14:59:53.766Z,8.88
2019-03-27T15:02:37.665Z,7.97
2019-03-27T15:05:31.033Z,11.55
2019-03-27T15:08:10.663Z,8.23
2019-03-27T15:10:43.615Z,7.33
2019-03-27T15:13:15.403Z,14.07
2019-03-27T15:15:46.083Z,11.73
2019-03-27T15:18:16.535Z,10.48
2019-03-27T15:20:47.085Z,13.58
2019-03-27T15:23:17.540Z,9.95
2019-03-27T15:25:47.987Z,10.00
2019-03-27T15:28:18.935Z,7.20
2019-03-27T15:30:49.448Z,8.25
2019-03-27T15:33:22.804Z,9.18
2019-03-27T15:35:53.318Z,8.88
2019-03-27T15:38:23.831Z,8.60
2019-03-27T15:40:54.271Z,9.68
2019-03-27T15:43:24.791Z,12.13
2019-03-27T15:45:55.328Z,87.92
2019-03-27T15:48:26.157Z,27.73
2019-03-27T15:50:58.907Z,40.12
2019-03-27T15:53:28.891Z,13.43
2019-03-27T15:55:59.490Z,12.53
2019-03-27T15:58:29.930Z,17.02
2019-03-27T16:01:00.383Z,15.80
2019-03-27T16:03:30.972Z,15.83
2019-03-27T16:06:01.417Z,19.12
2019-03-27T16:08:31.876Z,16.00
2019-03-27T16:11:02.380Z,20.90
2019-03-27T16:13:32.862Z,14.75
2019-03-27T16:16:03.394Z,10.65
2019-03-27T16:18:34.012Z,14.78
2019-03-27T16:21:05.478Z,9.88
2019-03-27T16:23:37.038Z,5.72
2019-03-27T16:26:07.695Z,7.65
2019-03-27T16:28:38.239Z,12.30
2019-03-27T16:31:08.743Z,11.78
2019-03-27T16:33:39.379Z,10.98
2019-03-27T16:36:09.977Z,16.45
2019-03-27T16:38:40.633Z,13.75
2019-03-27T16:41:11.072Z,12.37
2019-03-27T16:43:44.205Z,12.25
2019-03-27T16:46:14.041Z,14.33
2019-03-27T16:48:45.280Z,12.15
2019-03-27T16:51:15.719Z,10.98
2019-03-27T16:53:47.867Z,11.85
2019-03-27T16:56:18.357Z,9.65
2019-03-27T16:58:48.894Z,12.35
2019-03-27T17:01:19.942Z,8.65
2019-03-27T17:03:50.642Z,10.38
2019-03-27T17:06:21.706Z,11.80
2019-03-27T17:08:52.328Z,10.72
2019-03-27T17:11:22.903Z,12.80
2019-03-27T17:13:53.618Z,13.03
2019-03-27T17:16:24.386Z,13.83
2019-03-27T17:18:55.354Z,14.63
2019-03-27T17:21:26.057Z,18.30
2019-03-27T17:23:56.851Z,13.05
2019-03-27T17:26:27.644Z,15.40
2019-03-27T17:28:58.261Z,13.78
2019-03-27T17:31:29.008Z,18.05
2019-03-27T17:33:59.747Z,16.77
2019-03-27T17:36:30.507Z,21.17
2019-03-27T17:39:01.282Z,21.77
2019-03-27T17:41:33.743Z,21.05
2019-03-27T17:44:26.710Z,17.07
2019-03-27T17:47:07.329Z,21.25
2019-03-27T17:49:46.080Z,22.90
2019-03-27T17:52:18.469Z,17.70
2019-03-27T17:54:49.324Z,23.05
2019-03-27T17:57:20.202Z,17.57
2019-03-27T17:59:51.282Z,22.50
2019-03-27T18:02:21.775Z,19.80
2019-03-27T18:04:52.271Z,30.23
2019-03-27T18:07:23.353Z,22.20
2019-03-27T18:09:54.055Z,28.35
2019-03-27T18:12:24.734Z,26.68
2019-03-27T18:14:56.764Z,23.65
2019-03-27T18:17:27.264Z,29.85
2019-03-27T18:19:58.401Z,20.30
2019-03-27T18:22:29.314Z,24.20
2019-03-27T18:25:00.595Z,23.85
2019-03-27T18:27:31.440Z,25.12
2019-03-27T18:30:02.183Z,33.38
2019-03-27T18:32:34.553Z,29.12
2019-03-27T18:35:06.771Z,21.60
2019-03-27T18:37:38.467Z,24.90
2019-03-27T18:40:09.478Z,23.32
2019-03-27T18:42:40.825Z,23.25
2019-03-27T18:45:11.718Z,23.50
2019-03-27T18:47:42.309Z,20.85
2019-03-27T18:50:12.938Z,17.00
2019-03-27T18:52:43.970Z,19.92
2019-03-27T18:55:25.758Z,21.27
2019-03-27T18:57:59.494Z,19.10
2019-03-27T19:00:18.939Z,20.55
2019-03-27T19:02:49.472Z,25.40
2019-03-27T19:05:20.087Z,17.35
2019-03-27T19:07:50.542Z,17.20
2019-03-27T19:10:21.047Z,15.78
2019-03-27T19:12:51.564Z,15.90
2019-03-27T19:15:22.102Z,16.48
2019-03-27T19:18:07.388Z,18.73
2019-03-27T19:20:38.732Z,15.43
2019-03-27T19:23:10.701Z,18.12
2019-03-27T19:25:41.523Z,19.02
2019-03-27T19:28:12.018Z,16.12
2019-03-27T19:30:42.588Z,17.45
2019-03-27T19:33:13.088Z,18.17
2019-03-27T19:35:43.566Z,12.43
2019-03-27T19:38:14.120Z,17.45
2019-03-27T19:40:44.703Z,11.55
2019-03-27T19:43:15.123Z,16.32
2019-03-27T19:45:46.738Z,18.95
2019-03-27T19:48:17.501Z,19.98
2019-03-27T19:50:48.320Z,16.17
2019-03-27T19:53:18.944Z,18.32
2019-03-27T19:55:49.429Z,15.50
2019-03-27T19:58:19.912Z,12.33
2019-03-27T20:00:50.595Z,14.33
2019-03-27T20:03:21.090Z,15.25
2019-03-27T20:05:51.557Z,17.48
2019-03-27T20:08:22.432Z,17.75
2019-03-27T20:13:47.500Z,16.75
2019-03-27T20:16:18.158Z,18.98
2019-03-27T20:18:53.821Z,17.10
2019-03-27T20:21:24.363Z,14.65
2019-03-27T20:23:55.006Z,17.35
2019-03-27T20:26:25.618Z,14.43
2019-03-27T20:28:56.199Z,15.83
2019-03-27T20:31:26.691Z,14.03
2019-03-27T20:33:57.230Z,13.72
2019-03-27T20:36:27.784Z,15.00
2019-03-27T20:38:58.244Z,12.63
2019-03-27T20:41:28.788Z,19.50
2019-03-27T20:43:59.318Z,16.65
2019-03-27T20:46:29.877Z,16.67
2019-03-27T20:49:00.399Z,19.12
2019-03-27T20:51:30.953Z,16.17
2019-03-27T20:54:01.704Z,18.35
2019-03-27T20:56:32.251Z,14.85
2019-03-27T20:59:02.852Z,16.25
2019-03-27T21:01:33.421Z,15.08
2019-03-27T21:04:04.013Z,15.65
2019-03-27T21:06:35.403Z,18.45
2019-03-27T21:09:06.326Z,16.02
2019-03-27T21:11:37.218Z,14.60
2019-03-27T21:14:07.734Z,7.45
2019-03-27T21:16:38.211Z,15.80
2019-03-27T21:19:08.742Z,15.08
2019-03-27T21:21:41.794Z,15.48
2019-03-27T21:24:12.453Z,12.88
2019-03-27T21:26:44.730Z,17.87
2019-03-27T21:29:17.795Z,15.53
2019-03-27T21:31:48.526Z,15.15
2019-03-27T21:34:20.365Z,16.00
2019-03-27T21:36:50.989Z,15.32
2019-03-27T21:39:21.512Z,13.55
2019-03-27T21:41:52.139Z,15.20
2019-03-27T21:44:22.743Z,16.60
2019-03-27T21:46:56.185Z,17.95
2019-03-27T21:49:26.652Z,19.27
2019-03-27T21:51:57.202Z,15.63
2019-03-27T21:54:27.724Z,16.67
2019-03-27T21:56:58.296Z,19.23
2019-03-27T21:59:31.828Z,15.72
2019-03-27T22:02:02.381Z,21.55
2019-03-27T22:04:32.931Z,20.25
2019-03-27T22:07:03.648Z,17.15
2019-03-27T22:09:34.196Z,14.93
2019-03-27T22:12:04.759Z,18.40
2019-03-27T22:14:35.222Z,14.25
2019-03-27T22:17:05.775Z,14.43
2019-03-27T22:19:36.399Z,17.57
2019-03-27T22:22:07.031Z,15.10
2019-03-27T22:24:37.623Z,15.88
2019-03-27T22:27:08.199Z,13.22
2019-03-27T22:29:38.650Z,16.73
2019-03-27T22:32:09.206Z,16.65
2019-03-27T22:34:39.715Z,16.90
2019-03-27T22:37:10.266Z,17.95
2019-03-27T22:39:40.795Z,14.00
2019-03-27T22:42:11.287Z,16.45
2019-03-27T22:44:41.802Z,15.40
2019-03-27T22:47:12.342Z,15.88
2019-03-27T22:49:43.019Z,13.32
2019-03-27T22:52:13.553Z,15.25
2019-03-27T22:54:44.111Z,17.05
2019-03-27T22:57:14.734Z,22.52
2019-03-27T22:59:45.260Z,16.70
2019-03-27T23:02:15.866Z,17.07
2019-03-27T23:04:46.385Z,15.53
2019-03-27T23:07:16.887Z,17.42
2019-03-27T23:09:47.587Z,16.65
2019-03-27T23:12:18.117Z,16.85
2019-03-27T23:14:48.570Z,18.55
2019-03-27T23:17:19.073Z,16.97
2019-03-27T23:19:51.283Z,14.80
2019-03-27T23:22:22.074Z,19.62
2019-03-27T23:24:52.594Z,21.02
2019-03-27T23:27:23.129Z,16.52
2019-03-27T23:29:53.643Z,20.62
2019-03-27T23:32:24.214Z,16.27
2019-03-27T23:34:54.744Z,19.70
2019-03-27T23:37:25.276Z,20.00
2019-03-27T23:39:55.799Z,17.57
2019-03-27T23:42:26.388Z,16.20
2019-03-27T23:44:57.038Z,16.75
2019-03-27T23:47:27.593Z,17.12
2019-03-27T23:49:58.109Z,17.45
2019-03-27T23:52:28.590Z,17.35
2019-03-27T23:54:59.110Z,20.75
2019-03-27T23:57:29.730Z,19.27
